sensor_id;sensor_type;location;lat;lon;timestamp;temperature;humidity
45066;DHT22;30830;53.704;10.004;2023-09-08T00:02:17;18.00;99.90
45066;DHT22;30830;53.704;10.004;2023-09-08T00:04:43;17.90;99.90
45066;DHT22;30830;53.704;10.004;2023-09-08T00:07:08;17.90;99.90
45066;DHT22;30830;53.704;10.004;2023-09-08T00:09:34;17.80;99.90
45066;DHT22;30830;53.704;10.004;2023-09-08T00:11:59;17.70;99.90
45066;DHT22;30830;53.704;10.004;2023-09-08T00:14:25;17.70;99.90
45066;DHT22;30830;53.704;10.004;2023-09-08T00:16:52;17.60;99.90
45066;DHT22;30830;53.704;10.004;2023-09-08T00:19:20;17.50;99.90
45066;DHT22;30830;53.704;10.004;2023-09-08T00:21:45;17.60;99.90
45066;DHT22;30830;53.704;10.004;2023-09-08T00:24:11;17.60;99.90
45066;DHT22;30830;53.704;10.004;2023-09-08T00:26:37;17.50;99.90
45066;DHT22;30830;53.704;10.004;2023-09-08T00:29:03;17.50;99.90
45066;DHT22;30830;53.704;10.004;2023-09-08T00:31:28;17.50;99.90
45066;DHT22;30830;53.704;10.004;2023-09-08T00:33:54;17.50;99.90
45066;DHT22;30830;53.704;10.004;2023-09-08T00:36:19;17.50;99.90
45066;DHT22;30830;53.704;10.004;2023-09-08T00:38:45;17.50;99.90
45066;DHT22;30830;53.704;10.004;2023-09-08T00:41:13;17.50;99.90
45066;DHT22;30830;53.704;10.004;2023-09-08T00:43:39;17.50;99.90
45066;DHT22;30830;53.704;10.004;2023-09-08T00:46:06;17.40;99.90
45066;DHT22;30830;53.704;10.004;2023-09-08T00:48:32;17.40;99.90
45066;DHT22;30830;53.704;10.004;2023-09-08T00:50:57;17.40;99.90
45066;DHT22;30830;53.704;10.004;2023-09-08T00:53:23;17.40;99.90
45066;DHT22;30830;53.704;10.004;2023-09-08T00:55:49;17.40;99.90
45066;DHT22;30830;53.704;10.004;2023-09-08T00:58:15;17.40;99.90
45066;DHT22;30830;53.704;10.004;2023-09-08T01:00:41;17.40;99.90
45066;DHT22;30830;53.704;10.004;2023-09-08T01:03:07;17.30;99.90
45066;DHT22;30830;53.704;10.004;2023-09-08T01:05:32;17.30;99.90
45066;DHT22;30830;53.704;10.004;2023-09-08T01:07:59;17.30;99.90
45066;DHT22;30830;53.704;10.004;2023-09-08T01:10:26;17.30;99.90
45066;DHT22;30830;53.704;10.004;2023-09-08T01:12:51;17.30;99.90
45066;DHT22;30830;53.704;10.004;2023-09-08T01:15:17;17.30;99.90
45066;DHT22;30830;53.704;10.004;2023-09-08T01:17:43;17.30;99.90
45066;DHT22;30830;53.704;10.004;2023-09-08T01:20:19;17.30;99.90
45066;DHT22;30830;53.704;10.004;2023-09-08T01:23:18;17.30;99.90
45066;DHT22;30830;53.704;10.004;2023-09-08T01:26:01;17.20;99.90
45066;DHT22;30830;53.704;10.004;2023-09-08T01:28:30;17.30;99.90
45066;DHT22;30830;53.704;10.004;2023-09-08T01:30:57;17.20;99.90
45066;DHT22;30830;53.704;10.004;2023-09-08T01:33:22;17.20;99.90
45066;DHT22;30830;53.704;10.004;2023-09-08T01:35:49;17.20;99.90
45066;DHT22;30830;53.704;10.004;2023-09-08T01:38:14;17.20;99.90
45066;DHT22;30830;53.704;10.004;2023-09-08T01:40:40;17.20;99.90
45066;DHT22;30830;53.704;10.004;2023-09-08T01:43:06;17.10;99.90
45066;DHT22;30830;53.704;10.004;2023-09-08T01:45:31;17.10;99.90
45066;DHT22;30830;53.704;10.004;2023-09-08T01:47:57;17.10;99.90
45066;DHT22;30830;53.704;10.004;2023-09-08T01:50:22;17.10;99.90
45066;DHT22;30830;53.704;10.004;2023-09-08T01:52:50;17.10;99.90
45066;DHT22;30830;53.704;10.004;2023-09-08T01:55:16;17.00;99.90
45066;DHT22;30830;53.704;10.004;2023-09-08T01:57:45;17.00;99.90
45066;DHT22;30830;53.704;10.004;2023-09-08T02:00:12;17.00;99.90
45066;DHT22;30830;53.704;10.004;2023-09-08T02:02:38;17.00;99.90
45066;DHT22;30830;53.704;10.004;2023-09-08T02:05:04;16.90;99.90
45066;DHT22;30830;53.704;10.004;2023-09-08T02:07:29;16.90;99.90
45066;DHT22;30830;53.704;10.004;2023-09-08T02:09:55;16.90;99.90
45066;DHT22;30830;53.704;10.004;2023-09-08T02:12:21;16.90;99.90
45066;DHT22;30830;53.704;10.004;2023-09-08T02:14:47;16.90;99.90
45066;DHT22;30830;53.704;10.004;2023-09-08T02:17:12;16.90;99.90
45066;DHT22;30830;53.704;10.004;2023-09-08T02:19:38;16.80;99.90
45066;DHT22;30830;53.704;10.004;2023-09-08T02:22:04;16.80;99.90
45066;DHT22;30830;53.704;10.004;2023-09-08T02:24:29;16.80;99.90
45066;DHT22;30830;53.704;10.004;2023-09-08T02:26:55;16.70;99.90
45066;DHT22;30830;53.704;10.004;2023-09-08T02:29:20;16.70;99.90
45066;DHT22;30830;53.704;10.004;2023-09-08T02:31:46;16.60;99.90
45066;DHT22;30830;53.704;10.004;2023-09-08T02:34:11;16.60;99.90
45066;DHT22;30830;53.704;10.004;2023-09-08T02:36:38;16.50;99.90
45066;DHT22;30830;53.704;10.004;2023-09-08T02:39:04;16.50;99.90
45066;DHT22;30830;53.704;10.004;2023-09-08T02:41:29;16.40;99.90
45066;DHT22;30830;53.704;10.004;2023-09-08T02:43:55;16.30;99.90
45066;DHT22;30830;53.704;10.004;2023-09-08T02:46:20;16.30;99.90
45066;DHT22;30830;53.704;10.004;2023-09-08T02:48:46;16.20;99.90
45066;DHT22;30830;53.704;10.004;2023-09-08T02:51:12;16.20;99.90
45066;DHT22;30830;53.704;10.004;2023-09-08T02:53:37;16.10;99.90
45066;DHT22;30830;53.704;10.004;2023-09-08T02:56:03;16.10;99.90
45066;DHT22;30830;53.704;10.004;2023-09-08T02:58:31;16.00;99.90
45066;DHT22;30830;53.704;10.004;2023-09-08T03:01:29;16.00;99.90
45066;DHT22;30830;53.704;10.004;2023-09-08T03:03:55;15.90;99.90
45066;DHT22;30830;53.704;10.004;2023-09-08T03:06:21;15.90;99.90
45066;DHT22;30830;53.704;10.004;2023-09-08T03:08:46;15.80;99.90
45066;DHT22;30830;53.704;10.004;2023-09-08T03:11:12;15.80;99.90
45066;DHT22;30830;53.704;10.004;2023-09-08T03:13:38;15.70;99.90
45066;DHT22;30830;53.704;10.004;2023-09-08T03:16:05;15.70;99.90
45066;DHT22;30830;53.704;10.004;2023-09-08T03:18:31;15.60;99.90
45066;DHT22;30830;53.704;10.004;2023-09-08T03:20:58;15.60;99.90
45066;DHT22;30830;53.704;10.004;2023-09-08T03:23:23;15.60;99.90
45066;DHT22;30830;53.704;10.004;2023-09-08T03:25:49;15.50;99.90
45066;DHT22;30830;53.704;10.004;2023-09-08T03:28:15;15.50;99.90
45066;DHT22;30830;53.704;10.004;2023-09-08T03:30:40;15.50;99.90
45066;DHT22;30830;53.704;10.004;2023-09-08T03:33:06;15.40;99.90
45066;DHT22;30830;53.704;10.004;2023-09-08T03:35:31;15.40;99.90
45066;DHT22;30830;53.704;10.004;2023-09-08T03:37:57;15.40;99.90
45066;DHT22;30830;53.704;10.004;2023-09-08T03:40:23;15.40;99.90
45066;DHT22;30830;53.704;10.004;2023-09-08T03:42:49;15.40;99.90
45066;DHT22;30830;53.704;10.004;2023-09-08T03:45:14;15.30;99.90
45066;DHT22;30830;53.704;10.004;2023-09-08T03:47:40;15.30;99.90
45066;DHT22;30830;53.704;10.004;2023-09-08T03:50:06;15.30;99.90
45066;DHT22;30830;53.704;10.004;2023-09-08T03:52:32;15.30;99.90
45066;DHT22;30830;53.704;10.004;2023-09-08T03:54:57;15.30;99.90
45066;DHT22;30830;53.704;10.004;2023-09-08T03:57:23;15.30;99.90
45066;DHT22;30830;53.704;10.004;2023-09-08T03:59:49;15.30;99.90
45066;DHT22;30830;53.704;10.004;2023-09-08T04:02:14;15.30;99.90
45066;DHT22;30830;53.704;10.004;2023-09-08T04:04:40;15.40;99.90
45066;DHT22;30830;53.704;10.004;2023-09-08T04:07:05;15.40;99.90
45066;DHT22;30830;53.704;10.004;2023-09-08T04:09:31;15.30;99.90
45066;DHT22;30830;53.704;10.004;2023-09-08T04:11:57;15.40;99.90
45066;DHT22;30830;53.704;10.004;2023-09-08T04:14:22;15.40;99.90
45066;DHT22;30830;53.704;10.004;2023-09-08T04:16:53;15.40;99.90
45066;DHT22;30830;53.704;10.004;2023-09-08T04:19:18;15.40;99.90
45066;DHT22;30830;53.704;10.004;2023-09-08T04:21:44;15.30;99.90
45066;DHT22;30830;53.704;10.004;2023-09-08T04:24:09;15.40;99.90
45066;DHT22;30830;53.704;10.004;2023-09-08T04:26:37;15.40;99.90
45066;DHT22;30830;53.704;10.004;2023-09-08T04:29:03;15.40;99.90
45066;DHT22;30830;53.704;10.004;2023-09-08T04:31:28;15.40;99.90
45066;DHT22;30830;53.704;10.004;2023-09-08T04:33:54;15.40;99.90
45066;DHT22;30830;53.704;10.004;2023-09-08T04:36:19;15.40;99.90
45066;DHT22;30830;53.704;10.004;2023-09-08T04:38:45;15.40;99.90
45066;DHT22;30830;53.704;10.004;2023-09-08T04:41:11;15.40;99.90
45066;DHT22;30830;53.704;10.004;2023-09-08T04:43:36;15.40;99.90
45066;DHT22;30830;53.704;10.004;2023-09-08T04:46:02;15.40;99.90
45066;DHT22;30830;53.704;10.004;2023-09-08T04:48:29;15.30;99.90
45066;DHT22;30830;53.704;10.004;2023-09-08T04:50:54;15.40;99.90
45066;DHT22;30830;53.704;10.004;2023-09-08T04:53:20;15.30;99.90
45066;DHT22;30830;53.704;10.004;2023-09-08T04:55:46;15.30;99.90
45066;DHT22;30830;53.704;10.004;2023-09-08T04:58:11;15.30;99.90
45066;DHT22;30830;53.704;10.004;2023-09-08T05:00:38;15.30;99.90
45066;DHT22;30830;53.704;10.004;2023-09-08T05:03:05;15.40;99.90
45066;DHT22;30830;53.704;10.004;2023-09-08T05:05:30;15.30;99.90
45066;DHT22;30830;53.704;10.004;2023-09-08T05:07:56;15.30;99.90
45066;DHT22;30830;53.704;10.004;2023-09-08T05:10:23;15.30;99.90
45066;DHT22;30830;53.704;10.004;2023-09-08T05:12:48;15.30;99.90
45066;DHT22;30830;53.704;10.004;2023-09-08T05:15:15;15.30;99.90
45066;DHT22;30830;53.704;10.004;2023-09-08T05:17:41;15.30;99.90
45066;DHT22;30830;53.704;10.004;2023-09-08T05:20:08;15.30;99.90
45066;DHT22;30830;53.704;10.004;2023-09-08T05:22:34;15.30;99.90
45066;DHT22;30830;53.704;10.004;2023-09-08T05:24:59;15.40;99.90
45066;DHT22;30830;53.704;10.004;2023-09-08T05:27:25;15.40;99.90
45066;DHT22;30830;53.704;10.004;2023-09-08T05:29:50;15.40;99.90
45066;DHT22;30830;53.704;10.004;2023-09-08T05:32:16;15.40;99.90
45066;DHT22;30830;53.704;10.004;2023-09-08T05:34:42;15.40;99.90
45066;DHT22;30830;53.704;10.004;2023-09-08T05:37:07;15.40;99.90
45066;DHT22;30830;53.704;10.004;2023-09-08T05:39:34;15.40;99.90
45066;DHT22;30830;53.704;10.004;2023-09-08T05:41:59;15.40;99.90
45066;DHT22;30830;53.704;10.004;2023-09-08T05:44:25;15.50;99.90
45066;DHT22;30830;53.704;10.004;2023-09-08T05:46:50;15.50;99.90
45066;DHT22;30830;53.704;10.004;2023-09-08T05:49:16;15.50;99.90
45066;DHT22;30830;53.704;10.004;2023-09-08T05:51:43;15.60;99.90
45066;DHT22;30830;53.704;10.004;2023-09-08T05:54:09;15.50;99.90
45066;DHT22;30830;53.704;10.004;2023-09-08T05:56:37;15.60;99.90
45066;DHT22;30830;53.704;10.004;2023-09-08T05:59:03;15.60;99.90
45066;DHT22;30830;53.704;10.004;2023-09-08T06:01:29;15.60;99.90
45066;DHT22;30830;53.704;10.004;2023-09-08T06:03:55;15.70;99.90
45066;DHT22;30830;53.704;10.004;2023-09-08T06:06:21;15.80;99.90
45066;DHT22;30830;53.704;10.004;2023-09-08T06:08:47;15.80;99.90
45066;DHT22;30830;53.704;10.004;2023-09-08T06:11:13;15.90;99.90
45066;DHT22;30830;53.704;10.004;2023-09-08T06:13:38;15.90;99.90
45066;DHT22;30830;53.704;10.004;2023-09-08T06:16:04;16.00;99.90
45066;DHT22;30830;53.704;10.004;2023-09-08T06:18:29;16.00;99.90
45066;DHT22;30830;53.704;10.004;2023-09-08T06:20:56;16.10;99.90
45066;DHT22;30830;53.704;10.004;2023-09-08T06:23:21;16.20;99.90
45066;DHT22;30830;53.704;10.004;2023-09-08T06:25:48;16.20;99.90
45066;DHT22;30830;53.704;10.004;2023-09-08T06:28:13;16.30;99.90
45066;DHT22;30830;53.704;10.004;2023-09-08T06:30:39;16.30;99.90
45066;DHT22;30830;53.704;10.004;2023-09-08T06:33:09;16.40;99.90
45066;DHT22;30830;53.704;10.004;2023-09-08T06:35:35;16.40;99.90
45066;DHT22;30830;53.704;10.004;2023-09-08T06:38:01;16.50;99.90
45066;DHT22;30830;53.704;10.004;2023-09-08T06:40:29;16.60;99.90
45066;DHT22;30830;53.704;10.004;2023-09-08T06:42:54;16.60;99.90
45066;DHT22;30830;53.704;10.004;2023-09-08T06:45:20;16.70;99.90
45066;DHT22;30830;53.704;10.004;2023-09-08T06:47:46;16.80;99.90
45066;DHT22;30830;53.704;10.004;2023-09-08T06:50:11;16.90;99.90
45066;DHT22;30830;53.704;10.004;2023-09-08T06:52:37;16.90;99.90
45066;DHT22;30830;53.704;10.004;2023-09-08T06:55:03;17.00;99.90
45066;DHT22;30830;53.704;10.004;2023-09-08T06:57:30;17.10;99.90
45066;DHT22;30830;53.704;10.004;2023-09-08T06:59:56;17.20;99.90
45066;DHT22;30830;53.704;10.004;2023-09-08T07:02:21;17.30;99.90
45066;DHT22;30830;53.704;10.004;2023-09-08T07:04:47;17.40;99.90
45066;DHT22;30830;53.704;10.004;2023-09-08T07:07:12;17.50;99.90
45066;DHT22;30830;53.704;10.004;2023-09-08T07:09:38;17.60;99.90
45066;DHT22;30830;53.704;10.004;2023-09-08T07:12:04;17.80;99.90
45066;DHT22;30830;53.704;10.004;2023-09-08T07:14:31;18.00;99.90
45066;DHT22;30830;53.704;10.004;2023-09-08T07:16:56;18.10;99.90
45066;DHT22;30830;53.704;10.004;2023-09-08T07:19:22;18.30;99.90
45066;DHT22;30830;53.704;10.004;2023-09-08T07:21:47;18.50;99.90
45066;DHT22;30830;53.704;10.004;2023-09-08T07:24:13;18.70;99.90
45066;DHT22;30830;53.704;10.004;2023-09-08T07:26:39;18.90;99.90
45066;DHT22;30830;53.704;10.004;2023-09-08T07:29:04;19.10;99.90
45066;DHT22;30830;53.704;10.004;2023-09-08T07:31:30;19.30;99.90
45066;DHT22;30830;53.704;10.004;2023-09-08T07:33:55;19.50;99.90
45066;DHT22;30830;53.704;10.004;2023-09-08T07:36:21;19.60;99.90
45066;DHT22;30830;53.704;10.004;2023-09-08T07:38:46;19.80;99.90
45066;DHT22;30830;53.704;10.004;2023-09-08T07:41:12;20.00;99.90
45066;DHT22;30830;53.704;10.004;2023-09-08T07:43:37;20.10;99.90
45066;DHT22;30830;53.704;10.004;2023-09-08T07:46:06;20.30;99.90
45066;DHT22;30830;53.704;10.004;2023-09-08T07:48:32;20.30;99.90
45066;DHT22;30830;53.704;10.004;2023-09-08T07:50:58;20.50;99.90
45066;DHT22;30830;53.704;10.004;2023-09-08T07:53:28;20.60;99.90
45066;DHT22;30830;53.704;10.004;2023-09-08T07:55:54;20.70;99.90
45066;DHT22;30830;53.704;10.004;2023-09-08T07:58:19;20.80;99.90
45066;DHT22;30830;53.704;10.004;2023-09-08T08:00:45;21.00;99.90
45066;DHT22;30830;53.704;10.004;2023-09-08T08:03:10;21.10;99.90
45066;DHT22;30830;53.704;10.004;2023-09-08T08:05:36;21.20;99.90
45066;DHT22;30830;53.704;10.004;2023-09-08T08:08:02;21.30;99.90
45066;DHT22;30830;53.704;10.004;2023-09-08T08:10:27;21.50;99.90
45066;DHT22;30830;53.704;10.004;2023-09-08T08:12:53;21.50;99.90
45066;DHT22;30830;53.704;10.004;2023-09-08T08:15:20;21.60;99.90
45066;DHT22;30830;53.704;10.004;2023-09-08T08:17:48;21.70;99.90
45066;DHT22;30830;53.704;10.004;2023-09-08T08:20:14;21.70;99.90
45066;DHT22;30830;53.704;10.004;2023-09-08T08:22:43;21.80;99.90
45066;DHT22;30830;53.704;10.004;2023-09-08T08:25:10;21.90;99.90
45066;DHT22;30830;53.704;10.004;2023-09-08T08:27:38;21.90;99.90
45066;DHT22;30830;53.704;10.004;2023-09-08T08:30:04;22.00;99.90
45066;DHT22;30830;53.704;10.004;2023-09-08T08:32:30;22.10;99.90
45066;DHT22;30830;53.704;10.004;2023-09-08T08:34:56;22.10;99.90
45066;DHT22;30830;53.704;10.004;2023-09-08T08:37:22;22.10;99.90
45066;DHT22;30830;53.704;10.004;2023-09-08T08:39:47;22.20;99.90
45066;DHT22;30830;53.704;10.004;2023-09-08T08:42:13;22.20;99.90
45066;DHT22;30830;53.704;10.004;2023-09-08T08:44:39;22.30;99.90
45066;DHT22;30830;53.704;10.004;2023-09-08T08:47:10;22.30;99.90
45066;DHT22;30830;53.704;10.004;2023-09-08T08:49:36;22.40;99.90
45066;DHT22;30830;53.704;10.004;2023-09-08T08:52:02;22.40;99.90
45066;DHT22;30830;53.704;10.004;2023-09-08T08:54:34;22.40;99.90
45066;DHT22;30830;53.704;10.004;2023-09-08T08:57:01;22.50;99.90
45066;DHT22;30830;53.704;10.004;2023-09-08T08:59:27;22.50;99.90
45066;DHT22;30830;53.704;10.004;2023-09-08T09:01:54;22.50;99.90
45066;DHT22;30830;53.704;10.004;2023-09-08T09:04:21;22.60;99.90
45066;DHT22;30830;53.704;10.004;2023-09-08T09:06:47;22.60;99.90
45066;DHT22;30830;53.704;10.004;2023-09-08T09:09:12;22.70;99.90
45066;DHT22;30830;53.704;10.004;2023-09-08T09:11:40;22.70;99.90
45066;DHT22;30830;53.704;10.004;2023-09-08T09:14:06;22.70;99.90
45066;DHT22;30830;53.704;10.004;2023-09-08T09:16:38;22.80;99.90
45066;DHT22;30830;53.704;10.004;2023-09-08T09:19:04;22.90;99.90
45066;DHT22;30830;53.704;10.004;2023-09-08T09:21:44;22.90;99.90
45066;DHT22;30830;53.704;10.004;2023-09-08T09:24:17;23.00;99.90
45066;DHT22;30830;53.704;10.004;2023-09-08T09:26:43;23.00;99.90
45066;DHT22;30830;53.704;10.004;2023-09-08T09:29:14;23.10;99.90
45066;DHT22;30830;53.704;10.004;2023-09-08T09:32:16;23.10;99.90
45066;DHT22;30830;53.704;10.004;2023-09-08T09:34:48;23.20;99.90
45066;DHT22;30830;53.704;10.004;2023-09-08T09:37:16;23.30;99.90
45066;DHT22;30830;53.704;10.004;2023-09-08T09:39:42;23.30;99.90
45066;DHT22;30830;53.704;10.004;2023-09-08T09:42:07;23.30;99.90
45066;DHT22;30830;53.704;10.004;2023-09-08T09:44:33;23.40;99.90
45066;DHT22;30830;53.704;10.004;2023-09-08T09:47:00;23.40;99.90
45066;DHT22;30830;53.704;10.004;2023-09-08T09:49:26;23.50;99.90
45066;DHT22;30830;53.704;10.004;2023-09-08T09:51:58;23.50;99.90
45066;DHT22;30830;53.704;10.004;2023-09-08T09:54:24;23.60;99.90
45066;DHT22;30830;53.704;10.004;2023-09-08T09:56:50;23.60;99.90
45066;DHT22;30830;53.704;10.004;2023-09-08T09:59:17;23.70;99.90
45066;DHT22;30830;53.704;10.004;2023-09-08T10:01:43;23.80;99.90
45066;DHT22;30830;53.704;10.004;2023-09-08T10:04:09;23.80;99.90
45066;DHT22;30830;53.704;10.004;2023-09-08T10:06:38;23.90;99.90
45066;DHT22;30830;53.704;10.004;2023-09-08T10:09:05;23.90;99.90
45066;DHT22;30830;53.704;10.004;2023-09-08T10:11:48;24.00;99.90
45066;DHT22;30830;53.704;10.004;2023-09-08T10:14:15;24.10;99.90
45066;DHT22;30830;53.704;10.004;2023-09-08T10:16:43;24.20;99.90
45066;DHT22;30830;53.704;10.004;2023-09-08T10:19:10;24.20;99.90
45066;DHT22;30830;53.704;10.004;2023-09-08T10:21:41;24.30;99.90
45066;DHT22;30830;53.704;10.004;2023-09-08T10:24:15;24.30;99.90
45066;DHT22;30830;53.704;10.004;2023-09-08T10:26:44;24.40;99.90
45066;DHT22;30830;53.704;10.004;2023-09-08T10:29:12;24.50;99.90
45066;DHT22;30830;53.704;10.004;2023-09-08T10:31:39;24.50;99.90
45066;DHT22;30830;53.704;10.004;2023-09-08T10:34:05;24.60;99.90
45066;DHT22;30830;53.704;10.004;2023-09-08T10:36:33;24.70;99.90
45066;DHT22;30830;53.704;10.004;2023-09-08T10:47:18;24.80;99.90
45066;DHT22;30830;53.704;10.004;2023-09-08T10:49:44;24.90;99.90
45066;DHT22;30830;53.704;10.004;2023-09-08T10:52:12;24.90;99.90
45066;DHT22;30830;53.704;10.004;2023-09-08T10:54:42;25.00;99.90
45066;DHT22;30830;53.704;10.004;2023-09-08T10:57:15;25.10;99.90
45066;DHT22;30830;53.704;10.004;2023-09-08T10:59:51;25.10;99.90
45066;DHT22;30830;53.704;10.004;2023-09-08T11:02:37;25.20;99.90
45066;DHT22;30830;53.704;10.004;2023-09-08T11:05:08;25.20;99.90
45066;DHT22;30830;53.704;10.004;2023-09-08T11:07:38;25.30;99.90
45066;DHT22;30830;53.704;10.004;2023-09-08T11:10:04;25.40;99.90
45066;DHT22;30830;53.704;10.004;2023-09-08T11:12:30;25.40;99.90
45066;DHT22;30830;53.704;10.004;2023-09-08T11:14:57;25.40;99.90
45066;DHT22;30830;53.704;10.004;2023-09-08T11:17:27;25.40;99.90
45066;DHT22;30830;53.704;10.004;2023-09-08T11:19:54;25.50;99.90
45066;DHT22;30830;53.704;10.004;2023-09-08T11:22:22;25.50;99.90
45066;DHT22;30830;53.704;10.004;2023-09-08T11:25:01;25.50;99.90
45066;DHT22;30830;53.704;10.004;2023-09-08T11:27:30;25.60;99.90
45066;DHT22;30830;53.704;10.004;2023-09-08T11:29:56;25.70;99.90
45066;DHT22;30830;53.704;10.004;2023-09-08T11:32:22;25.70;99.90
45066;DHT22;30830;53.704;10.004;2023-09-08T11:34:48;25.80;99.90
45066;DHT22;30830;53.704;10.004;2023-09-08T11:37:15;25.90;99.90
45066;DHT22;30830;53.704;10.004;2023-09-08T11:39:46;25.90;99.90
45066;DHT22;30830;53.704;10.004;2023-09-08T11:42:14;25.90;99.90
45066;DHT22;30830;53.704;10.004;2023-09-08T11:44:41;26.00;99.90
45066;DHT22;30830;53.704;10.004;2023-09-08T11:47:07;26.10;99.90
45066;DHT22;30830;53.704;10.004;2023-09-08T11:49:39;26.10;99.80
45066;DHT22;30830;53.704;10.004;2023-09-08T11:52:05;26.20;99.80
45066;DHT22;30830;53.704;10.004;2023-09-08T11:54:32;26.20;99.90
45066;DHT22;30830;53.704;10.004;2023-09-08T11:57:00;26.30;99.10
45066;DHT22;30830;53.704;10.004;2023-09-08T11:59:30;26.40;98.60
45066;DHT22;30830;53.704;10.004;2023-09-08T12:01:56;26.50;98.60
45066;DHT22;30830;53.704;10.004;2023-09-08T12:04:22;26.50;98.90
45066;DHT22;30830;53.704;10.004;2023-09-08T12:06:52;26.50;98.40
45066;DHT22;30830;53.704;10.004;2023-09-08T12:09:20;26.50;98.30
45066;DHT22;30830;53.704;10.004;2023-09-08T12:11:46;26.50;98.50
45066;DHT22;30830;53.704;10.004;2023-09-08T12:14:13;26.60;98.50
45066;DHT22;30830;53.704;10.004;2023-09-08T12:16:40;26.60;99.10
45066;DHT22;30830;53.704;10.004;2023-09-08T12:19:06;26.70;98.60
45066;DHT22;30830;53.704;10.004;2023-09-08T12:21:35;26.70;98.10
45066;DHT22;30830;53.704;10.004;2023-09-08T12:24:00;26.80;97.50
45066;DHT22;30830;53.704;10.004;2023-09-08T12:26:26;26.80;97.90
45066;DHT22;30830;53.704;10.004;2023-09-08T12:28:52;26.80;98.70
45066;DHT22;30830;53.704;10.004;2023-09-08T12:31:18;26.80;98.90
45066;DHT22;30830;53.704;10.004;2023-09-08T12:33:44;26.80;98.20
45066;DHT22;30830;53.704;10.004;2023-09-08T12:36:17;26.90;98.30
45066;DHT22;30830;53.704;10.004;2023-09-08T12:38:47;27.00;97.10
45066;DHT22;30830;53.704;10.004;2023-09-08T12:41:13;27.00;98.10
45066;DHT22;30830;53.704;10.004;2023-09-08T12:43:39;27.10;97.40
45066;DHT22;30830;53.704;10.004;2023-09-08T12:46:04;27.10;97.30
45066;DHT22;30830;53.704;10.004;2023-09-08T12:48:30;27.10;97.70
45066;DHT22;30830;53.704;10.004;2023-09-08T12:50:55;27.10;97.70
45066;DHT22;30830;53.704;10.004;2023-09-08T12:53:21;27.20;97.20
45066;DHT22;30830;53.704;10.004;2023-09-08T12:55:48;27.20;97.70
45066;DHT22;30830;53.704;10.004;2023-09-08T12:58:14;27.20;98.10
45066;DHT22;30830;53.704;10.004;2023-09-08T13:00:40;27.20;98.30
45066;DHT22;30830;53.704;10.004;2023-09-08T13:03:05;27.20;97.80
45066;DHT22;30830;53.704;10.004;2023-09-08T13:05:31;27.20;98.20
45066;DHT22;30830;53.704;10.004;2023-09-08T13:07:56;27.20;97.70
45066;DHT22;30830;53.704;10.004;2023-09-08T13:10:22;27.30;97.90
45066;DHT22;30830;53.704;10.004;2023-09-08T13:12:48;27.30;97.90
45066;DHT22;30830;53.704;10.004;2023-09-08T13:15:14;27.40;98.10
45066;DHT22;30830;53.704;10.004;2023-09-08T13:17:39;27.40;97.90
45066;DHT22;30830;53.704;10.004;2023-09-08T13:20:06;27.40;97.50
45066;DHT22;30830;53.704;10.004;2023-09-08T13:22:32;27.40;98.00
45066;DHT22;30830;53.704;10.004;2023-09-08T13:24:58;27.40;98.10
45066;DHT22;30830;53.704;10.004;2023-09-08T13:27:23;27.40;98.00
45066;DHT22;30830;53.704;10.004;2023-09-08T13:29:49;27.50;98.40
45066;DHT22;30830;53.704;10.004;2023-09-08T13:32:14;27.50;98.30
45066;DHT22;30830;53.704;10.004;2023-09-08T13:34:40;27.50;98.60
45066;DHT22;30830;53.704;10.004;2023-09-08T13:37:06;27.50;99.00
45066;DHT22;30830;53.704;10.004;2023-09-08T13:39:31;27.60;98.20
45066;DHT22;30830;53.704;10.004;2023-09-08T13:41:59;27.60;98.20
45066;DHT22;30830;53.704;10.004;2023-09-08T13:44:25;27.60;98.40
45066;DHT22;30830;53.704;10.004;2023-09-08T13:46:51;27.70;97.70
45066;DHT22;30830;53.704;10.004;2023-09-08T13:49:17;27.80;97.60
45066;DHT22;30830;53.704;10.004;2023-09-08T13:51:44;27.80;96.60
45066;DHT22;30830;53.704;10.004;2023-09-08T13:54:10;27.80;96.40
45066;DHT22;30830;53.704;10.004;2023-09-08T13:56:39;27.80;96.30
45066;DHT22;30830;53.704;10.004;2023-09-08T13:59:05;27.90;96.60
45066;DHT22;30830;53.704;10.004;2023-09-08T14:01:32;27.80;96.60
45066;DHT22;30830;53.704;10.004;2023-09-08T14:10:43;27.90;95.70
45066;DHT22;30830;53.704;10.004;2023-09-08T14:13:08;27.90;94.50
45066;DHT22;30830;53.704;10.004;2023-09-08T14:15:34;28.00;94.40
45066;DHT22;30830;53.704;10.004;2023-09-08T14:17:59;28.00;94.40
45066;DHT22;30830;53.704;10.004;2023-09-08T14:20:25;28.00;94.30
45066;DHT22;30830;53.704;10.004;2023-09-08T14:22:50;28.00;94.40
45066;DHT22;30830;53.704;10.004;2023-09-08T14:25:16;28.00;94.60
45066;DHT22;30830;53.704;10.004;2023-09-08T14:27:41;28.00;95.20
45066;DHT22;30830;53.704;10.004;2023-09-08T14:30:07;28.00;94.80
45066;DHT22;30830;53.704;10.004;2023-09-08T14:32:32;28.00;94.80
45066;DHT22;30830;53.704;10.004;2023-09-08T14:34:58;28.00;95.20
45066;DHT22;30830;53.704;10.004;2023-09-08T14:37:23;28.00;95.20
45066;DHT22;30830;53.704;10.004;2023-09-08T14:39:49;28.00;94.80
45066;DHT22;30830;53.704;10.004;2023-09-08T14:42:15;28.00;94.80
45066;DHT22;30830;53.704;10.004;2023-09-08T14:44:41;28.00;94.60
45066;DHT22;30830;53.704;10.004;2023-09-08T14:47:07;28.00;93.90
45066;DHT22;30830;53.704;10.004;2023-09-08T14:49:33;27.90;93.50
45066;DHT22;30830;53.704;10.004;2023-09-08T14:51:58;27.90;93.90
45066;DHT22;30830;53.704;10.004;2023-09-08T14:54:25;28.00;93.20
45066;DHT22;30830;53.704;10.004;2023-09-08T14:56:51;27.90;94.10
45066;DHT22;30830;53.704;10.004;2023-09-08T14:59:17;27.90;93.80
45066;DHT22;30830;53.704;10.004;2023-09-08T15:01:42;27.90;93.90
45066;DHT22;30830;53.704;10.004;2023-09-08T15:04:10;27.80;93.70
45066;DHT22;30830;53.704;10.004;2023-09-08T15:06:36;27.80;93.50
45066;DHT22;30830;53.704;10.004;2023-09-08T15:09:01;27.80;93.60
45066;DHT22;30830;53.704;10.004;2023-09-08T15:11:27;27.80;93.70
45066;DHT22;30830;53.704;10.004;2023-09-08T15:13:52;27.80;94.20
45066;DHT22;30830;53.704;10.004;2023-09-08T15:16:18;27.70;94.50
45066;DHT22;30830;53.704;10.004;2023-09-08T15:18:44;27.70;94.40
45066;DHT22;30830;53.704;10.004;2023-09-08T15:21:09;27.70;94.70
45066;DHT22;30830;53.704;10.004;2023-09-08T15:23:35;27.70;94.60
45066;DHT22;30830;53.704;10.004;2023-09-08T15:26:01;27.70;95.50
45066;DHT22;30830;53.704;10.004;2023-09-08T15:28:27;27.60;94.40